地図

経路データ

SID SEASON NUMBER BASIN SUBBASIN NAME ISO_TIME NATURE LAT LON WMO_WIND WMO_PRES WMO_AGENCY TRACK_TYPE DIST2LAND LANDFALL IFLAG USA_AGENCY USA_ATCF_ID USA_LAT USA_LON USA_RECORD USA_STATUS USA_WIND USA_PRES USA_SSHS USA_R34_NE USA_R34_SE USA_R34_SW USA_R34_NW USA_R50_NE USA_R50_SE USA_R50_SW USA_R50_NW USA_R64_NE USA_R64_SE USA_R64_SW USA_R64_NW USA_POCI USA_ROCI USA_RMW USA_EYE TOKYO_LAT TOKYO_LON TOKYO_GRADE TOKYO_WIND TOKYO_PRES TOKYO_R50_DIR TOKYO_R50_LONG TOKYO_R50_SHORT TOKYO_R30_DIR TOKYO_R30_LONG TOKYO_R30_SHORT TOKYO_LAND CMA_LAT CMA_LON CMA_CAT CMA_WIND CMA_PRES HKO_LAT HKO_LON HKO_CAT HKO_WIND HKO_PRES NEWDELHI_LAT NEWDELHI_LON NEWDELHI_GRADE NEWDELHI_WIND NEWDELHI_PRES NEWDELHI_CI NEWDELHI_DP NEWDELHI_POCI REUNION_LAT REUNION_LON REUNION_TYPE REUNION_WIND REUNION_PRES REUNION_TNUM REUNION_CI REUNION_RMW REUNION_R34_NE REUNION_R34_SE REUNION_R34_SW REUNION_R34_NW REUNION_R50_NE REUNION_R50_SE REUNION_R50_SW REUNION_R50_NW REUNION_R64_NE REUNION_R64_SE REUNION_R64_SW REUNION_R64_NW BOM_LAT BOM_LON BOM_TYPE BOM_WIND BOM_PRES BOM_TNUM BOM_CI BOM_RMW BOM_R34_NE BOM_R34_SE BOM_R34_SW BOM_R34_NW BOM_R50_NE BOM_R50_SE BOM_R50_SW BOM_R50_NW BOM_R64_NE BOM_R64_SE BOM_R64_SW BOM_R64_NW BOM_ROCI BOM_POCI BOM_EYE BOM_POS_METHOD BOM_PRES_METHOD NADI_LAT NADI_LON NADI_CAT NADI_WIND NADI_PRES WELLINGTON_LAT WELLINGTON_LON WELLINGTON_WIND WELLINGTON_PRES DS824_LAT DS824_LON DS824_STAGE DS824_WIND DS824_PRES TD9636_LAT TD9636_LON TD9636_STAGE TD9636_WIND TD9636_PRES TD9635_LAT TD9635_LON TD9635_WIND TD9635_PRES TD9635_ROCI NEUMANN_LAT NEUMANN_LON NEUMANN_CLASS NEUMANN_WIND NEUMANN_PRES MLC_LAT MLC_LON MLC_CLASS MLC_WIND MLC_PRES USA_GUST BOM_GUST BOM_GUST_PER REUNION_GUST REUNION_GUST_PER USA_SEAHGT USA_SEARAD_NE USA_SEARAD_SE USA_SEARAD_SW USA_SEARAD_NW STORM_SPEED STORM_DIR
1979027S15167 1979 5 SP MM HENRY 1979-01-27 00:00:00 TS -14.5000 166.500 main 24 22 O________OO_O_ jtwc_sh SH091979 -14.5000 166.500 30 -1 -14.5000 166.500 TC 30 -14.5000 166.500 1 30 -14.5000 166.500 TC 30 1 45
1979027S15167 1979 5 SP MM HENRY 1979-01-27 03:00:00 TS -14.4520 166.558 main 22 22 P________PP_P_ SH091979 -14.4500 166.565 30 -1 -14.4500 166.565 TC 30 -14.4578 166.536 1 -14.4500 166.565 TC 30 1 42
1979027S15167 1979 5 SP MM HENRY 1979-01-27 06:00:00 TS -14.4031 166.589 main 33 33 O________OP_O_ jtwc_sh SH091979 -14.4000 166.600 30 -1 -14.4000 166.600 TC 30 -14.4124 166.558 1 -14.4000 166.600 TC 30 1 0
1979027S15167 1979 5 SP MM HENRY 1979-01-27 09:00:00 TS -14.3527 166.573 main 33 33 P________PP_P_ SH091979 -14.3500 166.580 30 -1 -14.3500 166.580 TC 30 -14.3609 166.550 1 -14.3500 166.580 TC 30 1 319
1979027S15167 1979 5 SP MM HENRY 1979-01-27 12:00:00 TS -14.3000 166.500 main 46 46 O________OO_O_ jtwc_sh SH091979 -14.3000 166.500 30 -1 -14.3000 166.500 TC 30 -14.3000 166.500 1 -14.3000 166.500 TC 30 2 297
1979027S15167 1979 5 SP MM HENRY 1979-01-27 15:00:00 TS -14.2502 166.368 main 49 49 P________PP_P_ SH091979 -14.2575 166.357 30 -1 -14.2575 166.357 TC 30 -14.2282 166.399 1 -14.2575 166.357 TC 30 3 292
1979027S15167 1979 5 SP MM HENRY 1979-01-27 18:00:00 TS -14.1875 166.216 main 70 70 O________OP_O_ jtwc_sh SH091979 -14.2000 166.200 30 -1 -14.2000 166.200 TC 30 -14.1501 166.265 1 -14.2000 166.200 TC 30 3 301
1979027S15167 1979 5 SP MM HENRY 1979-01-27 21:00:00 TS -14.0930 166.095 main 86 86 P________PP_P_ SH091979 -14.1000 166.085 30 -1 -14.1000 166.085 TC 30 -14.0719 166.124 1 -14.1000 166.085 TC 30 3 312
1979027S15167 1979 5 SP MM HENRY 1979-01-28 00:00:00 TS -14.0000 166.000 main 101 101 O________OO_O_ jtwc_sh SH091979 -14.0000 166.000 30 -1 -14.0000 166.000 TC 30 -14.0000 166.000 1 -14.0000 166.000 TC 30 2 316
1979027S15167 1979 5 SP MM HENRY 1979-01-28 03:00:00 TS -13.9436 165.940 main 117 117 P________PP_P_ SH091979 -13.9425 165.943 30 -1 -13.9425 165.943 TC 30 -13.9468 165.933 1 -13.9425 165.943 TC 30 1 317
1979027S15167 1979 5 SP MM HENRY 1979-01-28 06:00:00 TS -13.9000 165.896 main 117 117 O________OP_O_ jtwc_sh SH091979 -13.9000 165.900 30 -1 -13.9000 165.900 TC 30 -13.8999 165.885 1 -13.9000 165.900 TC 30 1 315
1979027S15167 1979 5 SP MM HENRY 1979-01-28 09:00:00 TS -13.8508 165.849 main 124 124 P________PP_P_ SH091979 -13.8500 165.850 30 -1 -13.8500 165.850 TC 30 -13.8531 165.845 1 -13.8500 165.850 TC 30 1 317
1979027S15167 1979 5 SP MM HENRY 1979-01-28 12:00:00 TS -13.8000 165.800 main 132 132 O________OO_O_ jtwc_sh SH091979 -13.8000 165.800 30 -1 -13.8000 165.800 TC 30 -13.8000 165.800 1 -13.8000 165.800 TC 30 1 315
1979027S15167 1979 5 SP MM HENRY 1979-01-28 15:00:00 TS -13.7532 165.753 main 132 132 P________PP_P_ SH091979 -13.7575 165.758 30 -1 -13.7575 165.758 TC 30 -13.7403 165.740 1 -13.7575 165.758 TC 30 1 316
1979027S15167 1979 5 SP MM HENRY 1979-01-28 18:00:00 TS -13.6931 165.693 main 148 148 O________OP_O_ jtwc_sh SH091979 -13.7000 165.700 30 -1 -13.7000 165.700 TC 30 -13.6725 165.673 1 -13.7000 165.700 TC 30 2 317
1979027S15167 1979 5 SP MM HENRY 1979-01-28 21:00:00 TS -13.6096 165.610 main 163 163 P________PP_P_ SH091979 -13.6150 165.615 30 -1 -13.6150 165.615 TC 30 -13.5934 165.593 1 -13.6150 165.615 TC 30 3 315
1979027S15167 1979 5 SP MM HENRY 1979-01-29 00:00:00 TS -13.5000 165.500 main 179 179 O________OO_O_ jtwc_sh SH091979 -13.5000 165.500 30 -1 -13.5000 165.500 TC 30 -13.5000 165.500 1 -13.5000 165.500 TC 30 4 313
1979027S15167 1979 5 SP MM HENRY 1979-01-29 03:00:00 TS -13.3506 165.326 main 202 202 P________PP_P_ SH091979 -13.3500 165.350 30 -1 -13.3500 165.350 TC 30 -13.3524 165.255 1 -13.3500 165.350 TC 30 5 312
1979027S15167 1979 5 SP MM HENRY 1979-01-29 06:00:00 TS -13.1991 165.154 main 225 225 O________OP_O_ jtwc_sh SH091979 -13.2000 165.200 30 -1 -13.2000 165.200 TC 30 -13.1965 165.018 1 -13.2000 165.200 TC 30 5 309
1979027S15167 1979 5 SP MM HENRY 1979-01-29 09:00:00 TS -13.0692 164.965 main 248 248 P________PP_P_ SH091979 -13.0698 164.988 32 -1 -13.0698 164.988 TC 32 -13.0674 164.896 1 -13.0698 164.988 TC 32 2 0
1979027S15167 1979 5 SP MM HENRY 1979-01-29 12:00:00 TS -13.0353 165.153 30 997 wellington main 243 203 O_______OOO_O_ jtwc_sh SH091979 -13.0000 165.000 35 0 -13.6000 167.600 30 997 -13.0000 165.000 TC 35 -13.0000 165.000 1 -13.0000 165.000 TC 35 7 92
1979027S15167 1979 5 SP MM HENRY 1979-01-29 15:00:00 TS -13.0919 165.727 main 203 169 P_______PPP_P_ SH091979 -13.0125 165.465 35 0 -13.7016 167.694 30 997 -13.0125 165.465 TC 35 -13.0252 165.527 1 -13.0125 165.465 TC 35 13 98
1979027S15167 1979 5 SP MM HENRY 1979-01-29 18:00:00 TS -13.2137 166.466 main 168 155 O_______POP_O_ jtwc_sh SH091979 -13.1000 166.200 35 0 -13.8025 167.790 30 997 -13.1000 166.200 TC 35 -13.1132 166.272 1 -13.1000 166.200 TC 35 15 101
1979027S15167 1979 5 SP MM HENRY 1979-01-29 21:00:00 TS -13.3706 167.217 main 159 159 P_______PPP_P_ SH091979 -13.2355 167.037 35 0 -13.9022 167.891 30 997 -13.2355 167.037 TC 35 -13.2442 167.081 1 -13.2355 167.037 TC 35 14 103
1979027S15167 1979 5 SP MM HENRY 1979-01-30 00:00:00 TS -13.5200 167.840 30 997 wellington main 184 178 O_______OOO_O_ jtwc_sh SH091979 -13.4000 167.800 35 0 -14.0000 168.000 30 997 -13.4000 167.800 TC 35 -13.4000 167.800 2 35 -13.4000 167.800 TC 35 10 106
1979027S15167 1979 5 SP MM HENRY 1979-01-30 03:00:00 TS -13.6528 168.213 main 187 187 P_______PPP_P_ SH091979 -13.5421 168.233 35 0 -14.0975 168.118 30 997 -13.5421 168.233 TC 35 -13.5403 168.248 2 -13.5421 168.233 TC 35 7 115
1979027S15167 1979 5 SP MM HENRY 1979-01-30 06:00:00 TS -13.8018 168.465 main 202 202 O_______POP_O_ jtwc_sh SH091979 -13.7000 168.500 35 0 -14.2050 168.243 30 997 -13.7000 168.500 TC 35 -13.7039 168.580 2 -13.7000 168.500 TC 35 6 124
1979027S15167 1979 5 SP MM HENRY 1979-01-30 09:00:00 TS -13.9761 168.711 main 205 205 P_______PPP_P_ SH091979 -13.8850 168.788 35 0 -14.3350 168.371 30 997 -13.8850 168.788 TC 35 -13.8906 168.823 2 -13.8850 168.788 TC 35 6 132
1979027S15167 1979 5 SP MM HENRY 1979-01-30 12:00:00 TS -14.1800 168.900 30 997 wellington main 213 208 O_______OOO_O_ jtwc_sh SH091979 -14.1000 169.000 35 0 -14.5000 168.500 30 997 -14.1000 169.000 TC 35 -14.1000 169.000 2 -14.1000 169.000 TC 35 5 145
1979027S15167 1979 5 SP MM HENRY 1979-01-30 15:00:00 TS -14.4188 169.026 main 215 211 P_______PPP_P_ SH091979 -14.3425 169.123 37 0 -14.7262 168.613 32 995 -14.3425 169.123 TC 37 -14.3404 169.150 2 -14.3425 169.123 TC 37 5 157
1979027S15167 1979 5 SP MM HENRY 1979-01-30 18:00:00 TS -14.6769 169.115 main 217 216 O_______POP_O_ jtwc_sh SH091979 -14.6000 169.200 40 0 -14.9849 168.728 35 993 -14.6000 169.200 TC 40 -14.5997 169.245 2 -14.6000 169.200 TC 40 6 161
1979027S15167 1979 5 SP MM HENRY 1979-01-30 21:00:00 TS -14.9411 169.210 main 216 202 P_______PPP_P_ SH091979 -14.8650 169.293 40 0 -15.2512 168.853 37 991 -14.8650 169.293 TC 40 -14.8592 169.318 2 -14.8650 169.293 TC 40 5 158
1979027S15167 1979 5 SP MM HENRY 1979-01-31 00:00:00 TS -15.1800 169.320 40 990 wellington main 202 202 O_______OOO_O_ jtwc_sh SH091979 -15.1000 169.400 40 0 -15.5000 169.000 40 990 -15.1000 169.400 TC 40 -15.1000 169.400 2 40 -15.1000 169.400 TC 40 5 148
1979027S15167 1979 5 SP MM HENRY 1979-01-31 03:00:00 TS -15.3524 169.477 main 207 207 P_______PPP_P_ SH091979 -15.2575 169.543 40 0 -15.6926 169.203 40 990 -15.2575 169.543 TC 40 -15.2966 169.556 2 -15.2575 169.543 TC 40 5 136
1979027S15167 1979 5 SP MM HENRY 1979-01-31 06:00:00 TS -15.5076 169.649 main 212 212 O_______POP_O_ jtwc_sh SH091979 -15.4000 169.700 40 0 -15.8652 169.422 40 990 -15.4000 169.700 TC 40 -15.4726 169.722 2 -15.4000 169.700 TC 40 5 136
1979027S15167 1979 5 SP MM HENRY 1979-01-31 09:00:00 TS -15.6935 169.825 main 224 224 P_______PPP_P_ SH091979 -15.6000 169.872 40 0 -16.0301 169.631 40 990 -15.6000 169.872 TC 40 -15.6373 169.878 2 -15.6000 169.872 TC 40 5 141
1979027S15167 1979 5 SP MM HENRY 1979-01-31 12:00:00 TS -15.8800 169.960 40 990 wellington main 239 237 O_______OOO_O_ jtwc_sh SH091979 -15.8000 170.000 40 0 -16.2000 169.800 40 990 -15.8000 170.000 TC 40 -15.8000 170.000 2 -15.8000 170.000 TC 40 4 155
1979027S15167 1979 5 SP MM HENRY 1979-01-31 15:00:00 TS -16.0354 169.991 main 237 235 P_______PPP_P_ SH091979 -15.9500 170.015 42 0 -16.3845 169.881 40 990 -15.9500 170.015 TC 42 -15.9424 170.029 2 -15.9500 170.015 TC 42 3 172
1979027S15167 1979 5 SP MM HENRY 1979-01-31 18:00:00 TS -16.1934 169.990 main 235 234 O_______POP_O_ jtwc_sh SH091979 -16.1000 170.000 45 0 -16.5773 169.923 40 990 -16.1000 170.000 TC 45 -16.0898 170.028 2 -16.1000 170.000 TC 45 3 0
1979027S15167 1979 5 SP MM HENRY 1979-01-31 21:00:00 TS -16.3762 170.010 main 234 234 P_______PPP_P_ SH091979 -16.2775 170.020 45 0 -16.7814 169.953 40 990 -16.2775 170.020 TC 45 -16.2673 170.039 2 -16.2775 170.020 TC 45 4 167
1979027S15167 1979 5 SP MM HENRY 1979-02-01 00:00:00 TS -16.6000 170.080 40 990 wellington main 245 245 O_______OOO_O_ jtwc_sh SH091979 -16.5000 170.100 45 0 -17.0000 170.000 40 990 -16.5000 170.100 TC 45 -16.5000 170.100 2 45 -16.5000 170.100 TC 45 5 156
1979027S15167 1979 5 SP MM HENRY 1979-02-01 03:00:00 TS -16.8519 170.233 main 257 257 P_______PPP_P_ SH091979 -16.7625 170.270 45 0 -17.1828 170.084 40 990 -16.7625 170.270 TC 45 -16.7893 170.271 2 -16.7625 170.270 TC 45 7 149
1979027S15167 1979 5 SP MM HENRY 1979-02-01 06:00:00 TS -17.1650 170.438 main 284 284 O_______POP_O_ jtwc_sh SH091979 -17.1000 170.500 45 0 -17.3874 170.191 40 990 -17.1000 170.500 TC 45 -17.1378 170.497 2 -17.1000 170.500 TC 45 8 149
1979027S15167 1979 5 SP MM HENRY 1979-02-01 09:00:00 TS -17.5502 170.665 main 327 327 P_______PPP_P_ SH091979 -17.5200 170.750 45 0 -17.6483 170.328 40 990 -17.5200 170.750 TC 45 -17.5424 170.750 2 -17.5200 170.750 TC 45 9 152
1979027S15167 1979 5 SP MM HENRY 1979-02-01 12:00:00 TS -18.0000 170.900 40 990 wellington main 364 364 O_______OOO_O_ jtwc_sh SH091979 -18.0000 171.000 45 0 -18.0000 170.500 40 990 -18.0000 171.000 TC 45 -18.0000 171.000 2 -18.0000 171.000 TC 45 10 155
1979027S15167 1979 5 SP MM HENRY 1979-02-01 15:00:00 TS -18.4747 171.114 main 409 409 P_______PPP_P_ SH091979 -18.4775 171.208 47 0 -18.4657 170.734 40 990 -18.4775 171.208 TC 47 -18.4753 171.212 2 -18.4775 171.208 TC 47 11 158
1979027S15167 1979 5 SP MM HENRY 1979-02-01 18:00:00 TS -19.0051 171.323 main 457 457 O_______POP_O_ jtwc_sh SH091979 -19.0000 171.400 50 0 -19.0231 170.999 40 990 -19.0000 171.400 TC 50 -19.0026 171.415 2 -19.0000 171.400 TC 50 12 160
1979027S15167 1979 5 SP MM HENRY 1979-02-01 21:00:00 TS -19.5955 171.535 main 515 515 P_______PPP_P_ SH091979 -19.5850 171.600 50 0 -19.6438 171.265 40 990 -19.5850 171.600 TC 50 -19.5785 171.612 2 -19.5850 171.600 TC 50 13 162
1979027S15167 1979 5 SP MM HENRY 1979-02-02 00:00:00 TS -20.2200 171.740 40 990 wellington main 535 530 O_______OOO_O_ jtwc_sh SH091979 -20.2000 171.800 50 0 -20.3000 171.500 40 990 -20.2000 171.800 TC 50 -20.2000 171.800 2 50 -20.2000 171.800 TC 50 13 162
1979027S15167 1979 5 SP MM HENRY 1979-02-02 03:00:00 TS -20.7863 171.955 main 540 531 P_______PPP_P_ SH091979 -20.7700 172.008 50 0 -20.8532 171.701 40 990 -20.7700 172.008 TC 50 -20.7681 172.049 2 -20.7700 172.008 TC 50 13 162
1979027S15167 1979 5 SP MM HENRY 1979-02-02 06:00:00 TS -21.4078 172.148 main 533 533 O_______POP_O_ jtwc_sh SH091979 -21.4000 172.200 50 0 -21.4481 171.861 40 990 -21.4000 172.200 TC 50 -21.3908 172.280 2 -21.4000 172.200 TC 50 14 166
1979027S15167 1979 5 SP MM HENRY 1979-02-02 09:00:00 TS -22.1139 172.319 main 545 545 P_______PPP_P_ SH091979 -22.1026 172.394 50 0 -22.1439 171.966 40 990 -22.1026 172.394 TC 50 -22.1180 172.447 2 -22.1026 172.394 TC 50 16 172
1979027S15167 1979 5 SP MM HENRY 1979-02-02 12:00:00 TS -23.0000 172.400 40 990 wellington main 559 559 O_______OOO_O_ jtwc_sh SH091979 -23.0000 172.500 50 0 -23.0000 172.000 40 990 -23.0000 172.500 TC 50 -23.0000 172.500 2 -23.0000 172.500 TC 50 21 179
1979027S15167 1979 5 SP MM HENRY 1979-02-02 15:00:00 TS -24.1607 172.381 main 590 590 P_______PPP_P_ SH091979 -24.1824 172.482 47 0 -24.1245 172.025 40 990 -24.1824 172.482 TC 47 -24.1318 172.433 2 -24.1824 172.482 TC 47 25 184
1979027S15167 1979 5 SP MM HENRY 1979-02-02 18:00:00 TS -25.4621 172.222 main 637 637 O_______POP_O_ jtwc_sh SH091979 -25.5000 172.300 45 0 -25.4013 171.969 40 990 -25.5000 172.300 TC 45 -25.4092 172.239 2 -25.5000 172.300 TC 45 26 189
1979027S15167 1979 5 SP MM HENRY 1979-02-02 21:00:00 TS -26.7643 171.931 main 704 704 P_______PPP_P_ SH091979 -26.7873 171.975 45 0 -26.7275 171.804 40 990 -26.7873 171.975 TC 45 -26.7319 171.925 2 -26.7873 171.975 TC 45 26 194
1979027S15167 1979 5 SP MM HENRY 1979-02-03 00:00:00 TS -28.0000 171.500 40 990 wellington main 732 631 O_______OOO_O_ jtwc_sh SH091979 -28.0000 171.500 45 0 -28.0000 171.500 40 990 -28.0000 171.500 TC 45 -28.0000 171.500 2 45 -28.0000 171.500 TC 45 24 200
1979027S15167 1979 5 SP MM HENRY 1979-02-03 03:00:00 TS -29.0512 170.970 main 620 542 P_______PPP_P_ SH091979 -29.0374 170.936 45 0 -29.0722 171.040 43 987 -29.0374 170.936 TC 45 -29.0718 171.002 2 46 -29.0374 170.936 TC 45 23 206
1979027S15167 1979 5 SP MM HENRY 1979-02-03 06:00:00 TS -30.0300 170.347 main 546 474 O_______POP_O_ jtwc_sh SH091979 -30.0000 170.300 45 0 -30.0754 170.437 47 985 -30.0000 170.300 TC 45 -30.0748 170.397 2 47 -30.0000 170.300 TC 45 23 209
1979027S15167 1979 5 SP MM HENRY 1979-02-03 09:00:00 TS -31.0204 169.695 main 474 435 P_______PPP_P_ SH091979 -31.0070 169.671 47 0 -31.0407 169.741 51 982 -31.0070 169.671 TC 47 -31.0403 169.719 2 48 -31.0070 169.671 TC 47 23 210
1979027S15167 1979 5 SP MM HENRY 1979-02-03 12:00:00 TS -32.0000 169.000 55 980 wellington main 435 427 O_______OOO_O_ jtwc_sh SH091979 -32.0000 169.000 50 0 -32.0000 169.000 55 980 -32.0000 169.000 TC 50 -32.0000 169.000 2 50 -32.0000 169.000 TC 50 23 213
1979027S15167 1979 5 SP MM HENRY 1979-02-03 15:00:00 TS -32.9506 168.212 main 439 439 P_______PPP_P_ SH091979 -32.9423 168.263 50 0 -32.9631 168.134 55 980 -32.9423 168.263 TC 50 -32.9631 168.134 2 47 -32.9423 168.263 TC 50 23 215
1979027S15167 1979 5 SP MM HENRY 1979-02-03 18:00:00 TS -33.9122 167.402 main 481 480 O_______POP_O_ jtwc_sh SH091979 -33.9000 167.500 50 0 -33.9304 167.256 55 980 -33.9000 167.500 TC 50 -33.9304 167.256 2 45 -33.9000 167.500 TC 50 24 214
1979027S15167 1979 5 SP MM HENRY 1979-02-03 21:00:00 TS -34.9206 166.596 main 549 549 P_______PPP_P_ SH091979 -34.9132 166.662 50 0 -34.9316 166.498 55 980 -34.9132 166.662 TC 50 -34.9316 166.498 2 42 -34.9132 166.662 TC 50 24 209
1979027S15167 1979 5 SP MM HENRY 1979-02-04 00:00:00 TS -36.0000 166.000 55 980 wellington main 620 620 O_______OOO_O_ jtwc_sh SH091979 -36.0000 166.000 50 0 -36.0000 166.000 55 980 -36.0000 166.000 TC 50 -36.0000 166.000 2 40 -36.0000 166.000 TC 50 24 199
1979027S15167 1979 5 SP MM HENRY 1979-02-04 03:00:00 TS -37.1624 165.665 main 687 618 P_______PPP_P_ SH091979 -37.1612 165.642 50 0 -37.1641 165.699 51 982 -37.1612 165.642 TC 50 -37.1641 165.699 2 -37.1612 165.642 TC 50 24 186
1979027S15167 1979 5 SP MM HENRY 1979-02-04 06:00:00 TS -38.4006 165.706 main 612 515 O_______POP_O_ jtwc_sh SH091979 -38.4000 165.700 50 0 -38.4016 165.715 47 985 -38.4000 165.700 TC 50 -38.4016 165.715 2 -38.4000 165.700 TC 50 26 172
1979027S15167 1979 5 SP MM HENRY 1979-02-04 09:00:00 TS -39.6898 166.112 main 509 363 P_______PPP_P_ SH091979 -39.6903 166.106 47 0 -39.6892 166.121 43 987 -39.6903 166.106 TC 47 -39.6892 166.121 2 -39.6903 166.106 TC 47 28 159
1979027S15167 1979 5 SP MM HENRY 1979-02-04 12:00:00 TS -41.0000 167.000 40 990 wellington main 350 185 O_______OOO_O_ jtwc_sh SH091979 -41.0000 167.000 45 0 -41.0000 167.000 40 990 -41.0000 167.000 TC 45 -41.0000 167.000 2 -41.0000 167.000 TC 45 31 147
1979027S15167 1979 5 SP MM HENRY 1979-02-04 15:00:00 TS -42.2735 168.304 main 171 0 P_______PPP_P_ SH091979 -42.2528 168.232 45 0 -42.3047 168.412 40 990 -42.2528 168.232 TC 45 -42.3047 168.412 2 -42.2528 168.232 TC 45 34 138
1979027S15167 1979 5 SP MM HENRY 1979-02-04 18:00:00 TS -43.5334 170.117 main 0 0 O_______POP_O_ jtwc_sh SH091979 -43.5000 170.000 45 0 -43.5836 170.292 40 990 -43.5000 170.000 TC 45 -43.5836 170.292 2 -43.5000 170.000 TC 45 39 130
1979027S15167 1979 5 SP MM HENRY 1979-02-04 21:00:00 TS -44.7855 172.401 main 91 91 P_______PPP_P_ SH091979 -44.7627 172.315 42 0 -44.8197 172.529 40 990 -44.7627 172.315 TC 42 -44.8197 172.529 2 -44.7627 172.315 TC 42 42 125
1979027S15167 1979 5 SP MM HENRY 1979-02-05 00:00:00 TS -46.0000 175.000 40 990 wellington main 276 O_______OOO_O_ jtwc_sh SH091979 -46.0000 175.000 40 0 -46.0000 175.000 40 990 -46.0000 175.000 TC 40 -46.0000 175.000 1 -46.0000 175.000 TC 40 44 124

デジタル台風データ・検索

IBTrACS Databaseについて

本データベースは、米国NOAAが公開する1842年以降の世界の熱帯低気圧のベストトラックデータアーカイブInternational Best Track Archive for Climate Stewardship (IBTrACS)を、ウェブで閲覧しやすい形式に変換したものです。

最終更新日:2021-10-08